createdAt,value
2022-08-20T00:00:44.068Z,0.00
2022-08-20T00:01:44.123Z,0.00
2022-08-20T00:02:44.039Z,0.00
2022-08-20T00:03:44.638Z,0.00
2022-08-20T00:04:44.032Z,0.00
2022-08-20T00:05:43.998Z,0.00
2022-08-20T00:06:43.987Z,0.00
2022-08-20T00:07:43.972Z,0.00
2022-08-20T00:08:43.961Z,0.00
2022-08-20T00:09:43.948Z,0.00
2022-08-20T00:10:43.935Z,0.00
2022-08-20T00:11:43.922Z,0.00
2022-08-20T00:12:43.910Z,0.00
2022-08-20T00:13:43.894Z,0.00
2022-08-20T00:14:43.883Z,0.00
2022-08-20T00:15:43.869Z,0.00
2022-08-20T00:16:43.861Z,0.00
2022-08-20T00:17:43.843Z,0.00
2022-08-20T00:18:43.832Z,0.00
2022-08-20T00:19:43.819Z,0.00
2022-08-20T00:20:43.811Z,0.00
2022-08-20T00:21:43.793Z,0.00
2022-08-20T00:22:43.781Z,0.00
2022-08-20T00:23:43.768Z,0.00
2022-08-20T00:24:43.756Z,0.00
2022-08-20T00:25:43.743Z,0.00
2022-08-20T00:26:51.965Z,0.00
2022-08-20T00:27:43.716Z,0.00
2022-08-20T00:28:43.704Z,0.00
2022-08-20T00:29:43.692Z,0.00
2022-08-20T00:30:43.677Z,0.00
2022-08-20T00:31:43.665Z,0.00
2022-08-20T00:32:43.652Z,0.00
2022-08-20T00:33:43.638Z,0.00
2022-08-20T00:34:43.626Z,0.00
2022-08-20T00:35:43.612Z,0.00
2022-08-20T00:36:43.601Z,0.00
2022-08-20T00:37:43.588Z,0.00
2022-08-20T00:38:43.576Z,0.00
2022-08-20T00:39:43.632Z,0.00
2022-08-20T00:40:43.548Z,0.00
2022-08-20T00:41:43.535Z,0.00
2022-08-20T00:42:43.523Z,0.00
2022-08-20T00:43:43.508Z,0.00
2022-08-20T00:44:43.497Z,0.00
2022-08-20T00:45:43.484Z,0.00
2022-08-20T00:46:43.471Z,0.00
2022-08-20T00:47:45.640Z,0.00
2022-08-20T00:48:43.446Z,0.00
2022-08-20T00:49:43.433Z,0.00
2022-08-20T00:50:43.419Z,0.00
2022-08-20T00:51:43.406Z,0.00
2022-08-20T00:52:43.393Z,0.00
2022-08-20T00:53:43.380Z,0.00
2022-08-20T00:54:43.368Z,0.00
2022-08-20T00:55:43.354Z,0.00
2022-08-20T00:56:43.341Z,0.00
2022-08-20T00:57:43.884Z,0.00
2022-08-20T00:58:43.315Z,0.00
2022-08-20T00:59:43.301Z,0.00
2022-08-20T01:00:43.296Z,0.00
2022-08-20T01:01:56.037Z,0.00
2022-08-20T01:02:43.263Z,0.00
2022-08-20T01:03:43.248Z,0.00
2022-08-20T01:04:43.238Z,0.00
2022-08-20T01:05:43.223Z,0.00
2022-08-20T01:06:43.211Z,0.00
2022-08-20T01:07:43.197Z,0.00
2022-08-20T01:08:43.185Z,0.00
2022-08-20T01:09:58.672Z,0.00
2022-08-20T01:10:43.159Z,0.00
2022-08-20T01:11:43.146Z,0.00
2022-08-20T01:12:43.132Z,0.00
2022-08-20T01:13:43.118Z,0.00
2022-08-20T01:14:43.107Z,0.00
2022-08-20T01:15:43.612Z,0.00
2022-08-20T01:16:43.079Z,0.00
2022-08-20T01:17:43.065Z,0.00
2022-08-20T01:18:43.054Z,0.00
2022-08-20T01:19:43.041Z,0.00
2022-08-20T01:20:43.029Z,0.00
2022-08-20T01:21:46.826Z,0.00
2022-08-20T01:22:43.008Z,0.00
2022-08-20T01:23:42.988Z,0.00
2022-08-20T01:24:42.976Z,0.00
2022-08-20T01:25:42.963Z,0.00
2022-08-20T01:26:42.950Z,0.00
2022-08-20T01:27:43.082Z,0.00
2022-08-20T01:28:42.923Z,0.00
2022-08-20T01:29:42.910Z,0.00
2022-08-20T01:30:42.897Z,0.00
2022-08-20T01:31:42.883Z,0.00
2022-08-20T01:32:42.872Z,0.00
2022-08-20T01:33:42.864Z,0.00
2022-08-20T01:34:42.846Z,0.00
2022-08-20T01:35:42.831Z,0.00
2022-08-20T01:36:46.092Z,0.00
2022-08-20T01:37:42.805Z,0.00
2022-08-20T01:38:53.882Z,0.00
2022-08-20T01:39:44.819Z,0.00
2022-08-20T01:40:42.766Z,0.00
2022-08-20T01:41:42.751Z,0.00
2022-08-20T01:42:52.774Z,0.00
2022-08-20T01:43:42.724Z,0.00
2022-08-20T01:44:42.711Z,0.00
2022-08-20T01:45:42.697Z,0.00
2022-08-20T01:46:43.670Z,0.00
2022-08-20T01:47:42.674Z,0.00
2022-08-20T01:48:42.657Z,0.00
2022-08-20T01:49:42.643Z,0.00
2022-08-20T01:50:42.632Z,0.00
2022-08-20T01:51:42.620Z,0.00
2022-08-20T01:52:42.605Z,0.00
2022-08-20T01:53:42.590Z,0.00
2022-08-20T01:54:42.579Z,0.00
2022-08-20T01:55:42.563Z,0.00
2022-08-20T01:56:42.551Z,0.00
2022-08-20T01:57:42.539Z,0.00
2022-08-20T01:58:42.530Z,0.00
2022-08-20T01:59:42.510Z,0.00
2022-08-20T02:00:42.512Z,0.00
2022-08-20T02:01:46.916Z,0.00
2022-08-20T02:02:42.471Z,0.00
2022-08-20T02:03:44.634Z,0.00
2022-08-20T02:04:42.444Z,0.00
2022-08-20T02:05:42.429Z,0.00
2022-08-20T02:06:42.416Z,0.00
2022-08-20T02:07:42.405Z,0.00
2022-08-20T02:08:42.388Z,0.00
2022-08-20T02:09:42.374Z,0.00
2022-08-20T02:10:42.363Z,0.00
2022-08-20T02:11:42.348Z,0.00
2022-08-20T02:12:42.336Z,0.00
2022-08-20T02:13:42.321Z,0.00
2022-08-20T02:14:42.308Z,0.00
2022-08-20T02:15:43.115Z,0.00
2022-08-20T02:16:42.281Z,0.00
2022-08-20T02:17:42.271Z,0.00
2022-08-20T02:18:42.254Z,0.00
2022-08-20T02:19:42.240Z,0.00
2022-08-20T02:20:42.227Z,0.00
2022-08-20T02:21:42.213Z,0.00
2022-08-20T02:22:49.200Z,0.00
2022-08-20T02:23:42.185Z,0.00
2022-08-20T02:24:42.174Z,0.00
2022-08-20T02:25:42.159Z,0.00
2022-08-20T02:26:42.146Z,0.00
2022-08-20T02:27:42.132Z,0.00
2022-08-20T02:28:42.121Z,0.00
2022-08-20T02:29:42.104Z,0.00
2022-08-20T02:30:42.093Z,0.00
2022-08-20T02:31:43.617Z,0.00
2022-08-20T02:32:42.066Z,0.00
2022-08-20T02:33:42.051Z,0.00
2022-08-20T02:34:42.041Z,0.00
2022-08-20T02:35:42.025Z,0.00
2022-08-20T02:36:42.012Z,0.00
2022-08-20T02:37:41.997Z,0.00
2022-08-20T02:38:41.987Z,0.00
2022-08-20T02:39:41.988Z,0.00
2022-08-20T02:40:41.960Z,0.00
2022-08-20T02:41:41.943Z,0.00
2022-08-20T02:42:41.931Z,0.00
2022-08-20T02:43:41.918Z,0.00
2022-08-20T02:44:41.903Z,0.00
2022-08-20T02:45:41.890Z,0.00
2022-08-20T02:46:41.877Z,0.00
2022-08-20T02:47:41.862Z,0.00
2022-08-20T02:48:41.851Z,0.00
2022-08-20T02:49:41.839Z,0.00
2022-08-20T02:50:41.822Z,0.00
2022-08-20T02:51:41.808Z,0.00
2022-08-20T02:52:41.795Z,0.00
2022-08-20T02:53:41.781Z,0.00
2022-08-20T02:54:41.769Z,0.00
2022-08-20T02:55:41.753Z,0.00
2022-08-20T02:56:41.741Z,0.00
2022-08-20T02:57:41.729Z,0.00
2022-08-20T02:58:41.715Z,0.00
2022-08-20T02:59:41.701Z,0.00
2022-08-20T03:00:41.691Z,0.00
2022-08-20T03:01:41.750Z,0.00
2022-08-20T03:02:41.662Z,0.00
2022-08-20T03:03:41.647Z,0.00
2022-08-20T03:04:41.636Z,0.00
2022-08-20T03:05:41.621Z,0.00
2022-08-20T03:06:41.609Z,0.00
2022-08-20T03:07:41.595Z,0.00
2022-08-20T03:08:41.581Z,0.00
2022-08-20T03:09:41.566Z,0.00
2022-08-20T03:10:41.557Z,0.00
2022-08-20T03:11:41.541Z,0.00
2022-08-20T03:12:41.529Z,0.00
2022-08-20T03:13:41.514Z,0.00
2022-08-20T03:14:41.501Z,0.00
2022-08-20T03:15:41.487Z,0.00
2022-08-20T03:16:41.476Z,0.00
2022-08-20T03:17:41.461Z,0.00
2022-08-20T03:18:41.456Z,0.00
2022-08-20T03:19:41.435Z,0.00
2022-08-20T03:20:41.423Z,0.00
2022-08-20T03:21:41.417Z,0.00
2022-08-20T03:22:41.404Z,0.00
2022-08-20T03:23:41.385Z,0.00
2022-08-20T03:24:41.368Z,0.00
2022-08-20T03:25:41.368Z,0.00
2022-08-20T03:26:41.341Z,0.00
2022-08-20T03:28:41.316Z,0.00
2022-08-20T03:29:41.304Z,0.00
2022-08-20T03:30:41.286Z,0.00
2022-08-20T03:31:41.278Z,0.00
2022-08-20T03:32:41.261Z,0.00
2022-08-20T03:33:48.877Z,0.00
2022-08-20T03:34:41.233Z,0.00
2022-08-20T03:35:41.219Z,0.00
2022-08-20T03:36:41.207Z,0.00
2022-08-20T03:37:42.200Z,0.00
2022-08-20T03:38:41.180Z,0.00
2022-08-20T03:39:41.215Z,0.00
2022-08-20T03:40:41.152Z,0.00
2022-08-20T03:41:41.139Z,0.00
2022-08-20T03:42:41.127Z,0.00
2022-08-20T03:43:41.111Z,0.00
2022-08-20T03:44:41.099Z,0.00
2022-08-20T03:45:41.086Z,0.00
2022-08-20T03:46:41.072Z,0.00
2022-08-20T03:47:41.058Z,0.00
2022-08-20T03:48:41.045Z,0.00
2022-08-20T03:49:41.031Z,0.00
2022-08-20T03:50:41.018Z,0.00
2022-08-20T03:51:57.501Z,0.00
2022-08-20T03:52:40.993Z,0.00
2022-08-20T03:53:40.979Z,0.00
2022-08-20T03:54:40.966Z,0.00
2022-08-20T03:55:40.950Z,0.00
2022-08-20T03:56:40.938Z,0.00
2022-08-20T03:57:40.923Z,0.00
2022-08-20T03:58:40.911Z,0.00
2022-08-20T03:59:40.897Z,0.00
2022-08-20T04:00:40.886Z,0.00
2022-08-20T04:01:46.034Z,0.00
2022-08-20T04:02:40.858Z,0.00
2022-08-20T04:03:40.843Z,0.00
2022-08-20T04:04:40.833Z,0.00
2022-08-20T04:05:40.817Z,0.00
2022-08-20T04:06:41.190Z,0.00
2022-08-20T04:07:40.792Z,0.00
2022-08-20T04:08:40.778Z,0.00
2022-08-20T04:09:40.765Z,0.00
2022-08-20T04:10:40.752Z,0.00
2022-08-20T04:11:40.746Z,0.00
2022-08-20T04:12:40.722Z,0.00
2022-08-20T04:13:41.943Z,0.00
2022-08-20T04:14:40.696Z,0.00
2022-08-20T04:15:40.682Z,0.00
2022-08-20T04:16:40.671Z,0.00
2022-08-20T04:17:40.655Z,0.00
2022-08-20T04:18:40.641Z,0.00
2022-08-20T04:19:40.629Z,0.00
2022-08-20T04:20:40.615Z,0.00
2022-08-20T04:21:40.602Z,0.00
2022-08-20T04:22:40.587Z,0.00
2022-08-20T04:23:40.576Z,0.00
2022-08-20T04:24:40.561Z,0.00
2022-08-20T04:25:40.547Z,0.00
2022-08-20T04:26:40.534Z,0.01
2022-08-20T04:27:40.521Z,0.01
2022-08-20T04:28:40.520Z,0.01
2022-08-20T04:29:40.495Z,0.01
2022-08-20T04:30:40.479Z,0.01
2022-08-20T04:31:40.466Z,0.01
2022-08-20T04:32:40.452Z,0.01
2022-08-20T04:33:40.440Z,0.02
2022-08-20T04:34:40.425Z,0.02
2022-08-20T04:35:40.413Z,0.02
2022-08-20T04:36:40.398Z,0.03
2022-08-20T04:37:40.385Z,0.03
2022-08-20T04:38:48.022Z,0.03
2022-08-20T04:39:40.418Z,0.05
2022-08-20T04:40:40.346Z,0.05
2022-08-20T04:41:40.333Z,0.06
2022-08-20T04:42:40.318Z,0.06
2022-08-20T04:43:40.305Z,0.07
2022-08-20T04:44:40.290Z,0.07
2022-08-20T04:45:40.279Z,0.07
2022-08-20T04:46:40.263Z,0.07
2022-08-20T04:47:40.251Z,0.07
2022-08-20T04:48:40.237Z,0.07
2022-08-20T04:49:40.227Z,0.07
2022-08-20T04:50:40.210Z,0.07
2022-08-20T04:51:40.198Z,0.07
2022-08-20T04:52:40.183Z,0.07
2022-08-20T04:53:40.172Z,0.07
2022-08-20T04:54:40.156Z,0.08
2022-08-20T04:55:40.145Z,0.08
2022-08-20T04:56:40.132Z,0.10
2022-08-20T04:57:40.121Z,0.10
2022-08-20T04:58:40.106Z,0.10
2022-08-20T04:59:40.094Z,0.11
2022-08-20T05:00:40.080Z,0.11
2022-08-20T05:01:40.126Z,0.11
2022-08-20T05:02:40.054Z,0.11
2022-08-20T05:03:40.042Z,0.11
2022-08-20T05:04:40.027Z,0.12
2022-08-20T05:05:40.015Z,0.12
2022-08-20T05:06:40.001Z,0.13
2022-08-20T05:07:39.989Z,0.13
2022-08-20T05:08:39.974Z,0.15
2022-08-20T05:09:44.146Z,0.16
2022-08-20T05:10:39.948Z,0.17
2022-08-20T05:11:39.935Z,0.18
2022-08-20T05:12:39.921Z,0.18
2022-08-20T05:13:39.911Z,0.18
2022-08-20T05:14:39.895Z,0.18
2022-08-20T05:15:39.883Z,0.20
2022-08-20T05:16:39.868Z,0.21
2022-08-20T05:17:39.856Z,0.22
2022-08-20T05:18:39.843Z,0.22
2022-08-20T05:19:39.830Z,0.22
2022-08-20T05:20:39.818Z,0.24
2022-08-20T05:21:39.812Z,0.25
2022-08-20T05:22:39.792Z,0.25
2022-08-20T05:23:39.779Z,0.26
2022-08-20T05:24:39.765Z,0.26
2022-08-20T05:25:39.752Z,0.26
2022-08-20T05:26:39.738Z,0.26
2022-08-20T05:27:39.726Z,0.26
2022-08-20T05:28:54.066Z,0.26
2022-08-20T05:29:39.701Z,0.25
2022-08-20T05:30:39.686Z,0.25
2022-08-20T05:31:39.676Z,0.25
2022-08-20T05:32:44.724Z,0.25
2022-08-20T05:33:39.652Z,0.26
2022-08-20T05:34:39.636Z,0.27
2022-08-20T05:35:39.624Z,0.29
2022-08-20T05:36:39.621Z,0.27
2022-08-20T05:37:39.600Z,0.27
2022-08-20T05:38:39.585Z,0.26
2022-08-20T05:39:39.598Z,0.25
2022-08-20T05:40:39.558Z,0.22
2022-08-20T05:41:39.547Z,0.21
2022-08-20T05:42:39.535Z,0.20
2022-08-20T05:43:39.521Z,0.20
2022-08-20T05:44:39.507Z,0.20
2022-08-20T05:45:39.495Z,0.18
2022-08-20T05:46:39.482Z,0.20
2022-08-20T05:47:42.676Z,0.20
2022-08-20T05:48:39.455Z,0.21
2022-08-20T05:49:39.444Z,0.21
2022-08-20T05:50:39.429Z,0.21
2022-08-20T05:51:39.418Z,0.20
2022-08-20T05:52:39.405Z,0.18
2022-08-20T05:53:39.394Z,0.18
2022-08-20T05:54:39.379Z,0.18
2022-08-20T05:55:39.368Z,0.20
2022-08-20T05:56:39.353Z,0.21
2022-08-20T05:57:39.342Z,0.21
2022-08-20T05:58:39.327Z,0.21
2022-08-20T05:59:39.317Z,0.21
2022-08-20T06:00:39.301Z,0.22
2022-08-20T06:01:39.493Z,0.22
2022-08-20T06:02:39.276Z,0.24
2022-08-20T06:03:39.267Z,0.25
2022-08-20T06:04:39.251Z,0.25
2022-08-20T06:05:39.239Z,0.26
2022-08-20T06:06:44.553Z,0.27
2022-08-20T06:07:39.214Z,0.29
2022-08-20T06:08:39.201Z,0.29
2022-08-20T06:09:42.248Z,0.30
2022-08-20T06:10:39.174Z,0.30
2022-08-20T06:11:39.162Z,0.30
2022-08-20T06:12:39.148Z,0.30
2022-08-20T06:13:39.140Z,0.30
2022-08-20T06:14:39.124Z,0.30
2022-08-20T06:15:39.112Z,0.31
2022-08-20T06:16:39.097Z,0.31
2022-08-20T06:17:39.574Z,0.31
2022-08-20T06:18:39.073Z,0.34
2022-08-20T06:19:39.064Z,0.36
2022-08-20T06:20:39.046Z,0.40
2022-08-20T06:21:39.035Z,0.45
2022-08-20T06:22:39.021Z,0.49
2022-08-20T06:23:54.198Z,0.50
2022-08-20T06:24:38.996Z,0.50
2022-08-20T06:25:38.984Z,0.49
2022-08-20T06:26:38.974Z,0.50
2022-08-20T06:27:38.960Z,0.54
2022-08-20T06:28:38.944Z,0.59
2022-08-20T06:29:38.933Z,0.64
2022-08-20T06:30:38.919Z,0.68
2022-08-20T06:31:38.907Z,0.70
2022-08-20T06:32:38.893Z,0.72
2022-08-20T06:33:38.881Z,0.73
2022-08-20T06:34:49.736Z,0.74
2022-08-20T06:35:40.855Z,0.75
2022-08-20T06:36:38.844Z,0.77
2022-08-20T06:37:38.830Z,0.77
2022-08-20T06:38:38.818Z,0.78
2022-08-20T06:39:38.839Z,0.79
2022-08-20T06:40:38.795Z,0.82
2022-08-20T06:41:38.778Z,0.84
2022-08-20T06:42:38.765Z,0.88
2022-08-20T06:43:38.753Z,0.92
2022-08-20T06:44:38.739Z,0.96
2022-08-20T06:45:38.728Z,0.99
2022-08-20T06:46:38.712Z,1.05
2022-08-20T06:47:38.702Z,1.13
2022-08-20T06:48:38.688Z,1.26
2022-08-20T06:49:38.675Z,1.68
2022-08-20T06:50:41.021Z,1.59
2022-08-20T06:51:38.651Z,1.67
2022-08-20T06:52:52.401Z,4.35
2022-08-20T06:53:38.625Z,4.56
2022-08-20T06:54:38.609Z,4.48
2022-08-20T06:55:38.599Z,4.01
2022-08-20T06:56:38.586Z,4.17
2022-08-20T06:57:38.575Z,4.97
2022-08-20T06:58:38.944Z,5.31
2022-08-20T06:59:38.547Z,4.89
2022-08-20T07:00:38.584Z,5.03
2022-08-20T07:01:38.582Z,2.61
2022-08-20T07:02:38.512Z,2.27
2022-08-20T07:03:38.599Z,2.26
2022-08-20T07:04:38.482Z,2.05
2022-08-20T07:05:38.473Z,1.94
2022-08-20T07:06:38.459Z,1.98
2022-08-20T07:07:38.448Z,2.18
2022-08-20T07:08:38.433Z,2.32
2022-08-20T07:09:38.421Z,2.54
2022-08-20T07:10:38.408Z,2.86
2022-08-20T07:11:38.397Z,3.50
2022-08-20T07:12:38.387Z,4.72
2022-08-20T07:13:38.375Z,3.67
2022-08-20T07:14:38.358Z,3.22
2022-08-20T07:15:38.347Z,2.61
2022-08-20T07:16:38.333Z,2.32
2022-08-20T07:17:38.323Z,2.25
2022-08-20T07:18:38.309Z,2.18
2022-08-20T07:19:38.297Z,2.12
2022-08-20T07:20:38.283Z,2.01
2022-08-20T07:21:38.275Z,1.93
2022-08-20T07:22:38.259Z,1.89
2022-08-20T07:23:38.247Z,1.82
2022-08-20T07:24:41.147Z,1.63
2022-08-20T07:25:38.224Z,1.31
2022-08-20T07:26:38.208Z,1.06
2022-08-20T07:27:38.198Z,0.87
2022-08-20T07:29:38.177Z,0.64
2022-08-20T07:30:55.986Z,0.59
2022-08-20T07:31:38.150Z,0.53
2022-08-20T07:32:39.602Z,0.46
2022-08-20T07:33:38.122Z,0.41
2022-08-20T07:34:38.106Z,0.37
2022-08-20T07:35:38.095Z,0.35
2022-08-20T07:36:38.081Z,0.37
2022-08-20T07:37:38.069Z,0.40
2022-08-20T07:38:38.057Z,0.43
2022-08-20T07:39:38.079Z,0.44
2022-08-20T07:40:38.030Z,0.45
2022-08-20T07:41:38.023Z,0.48
2022-08-20T07:42:38.005Z,0.49
2022-08-20T07:43:37.993Z,0.50
2022-08-20T07:44:37.979Z,0.54
2022-08-20T07:45:37.968Z,0.59
2022-08-20T07:46:37.958Z,0.68
2022-08-20T07:47:37.941Z,0.82
2022-08-20T07:48:37.927Z,0.97
2022-08-20T07:49:37.916Z,1.12
2022-08-20T07:50:37.902Z,1.27
2022-08-20T07:51:37.890Z,1.35
2022-08-20T07:52:37.880Z,1.35
2022-08-20T07:53:37.866Z,1.29
2022-08-20T07:54:37.854Z,1.29
2022-08-20T07:55:37.841Z,1.30
2022-08-20T07:56:37.826Z,1.30
2022-08-20T07:57:37.814Z,1.25
2022-08-20T07:58:37.800Z,1.17
2022-08-20T07:59:37.788Z,1.13
2022-08-20T08:00:37.807Z,1.13
2022-08-20T08:01:37.764Z,1.16
2022-08-20T08:02:37.749Z,1.21
2022-08-20T08:03:48.927Z,1.25
2022-08-20T08:04:37.724Z,1.29
2022-08-20T08:05:37.711Z,1.34
2022-08-20T08:06:37.698Z,1.41
2022-08-20T08:07:37.800Z,1.54
2022-08-20T08:08:37.671Z,1.68
2022-08-20T08:09:37.662Z,1.83
2022-08-20T08:10:37.654Z,1.86
2022-08-20T08:11:38.018Z,1.93
2022-08-20T08:12:37.619Z,1.96
2022-08-20T08:13:37.609Z,1.89
2022-08-20T08:14:37.595Z,1.74
2022-08-20T08:15:37.588Z,1.68
2022-08-20T08:16:37.580Z,1.82
2022-08-20T08:17:37.559Z,2.07
2022-08-20T08:18:37.545Z,2.37
2022-08-20T08:19:37.536Z,2.61
2022-08-20T08:20:37.521Z,3.06
2022-08-20T08:21:37.510Z,3.35
2022-08-20T08:22:37.497Z,3.56
2022-08-20T08:23:37.484Z,3.51
2022-08-20T08:24:37.471Z,3.68
2022-08-20T08:25:37.460Z,3.11
2022-08-20T08:26:37.443Z,3.51
2022-08-20T08:27:37.428Z,3.64
2022-08-20T08:28:37.417Z,3.06
2022-08-20T08:29:37.403Z,4.16
2022-08-20T08:30:37.392Z,6.50
2022-08-20T08:31:37.378Z,7.61
2022-08-20T08:32:37.367Z,7.23
2022-08-20T08:33:37.353Z,5.40
2022-08-20T08:34:37.343Z,8.18
2022-08-20T08:35:37.329Z,7.96
2022-08-20T08:36:37.317Z,8.31
2022-08-20T08:37:37.304Z,8.42
2022-08-20T08:38:37.293Z,8.53
2022-08-20T08:39:37.377Z,8.60
2022-08-20T08:40:37.269Z,8.66
2022-08-20T08:41:37.254Z,8.66
2022-08-20T08:42:42.581Z,9.04
2022-08-20T08:43:37.229Z,8.97
2022-08-20T08:44:37.219Z,6.54
2022-08-20T08:45:37.205Z,4.73
2022-08-20T08:46:37.194Z,5.25
2022-08-20T08:47:37.181Z,4.94
2022-08-20T08:48:37.173Z,3.97
2022-08-20T08:49:37.557Z,2.61
2022-08-20T08:50:54.063Z,2.36
2022-08-20T08:51:37.134Z,2.27
2022-08-20T08:52:37.127Z,2.08
2022-08-20T08:53:37.110Z,1.79
2022-08-20T08:54:37.100Z,1.65
2022-08-20T08:55:37.084Z,1.67
2022-08-20T08:56:37.075Z,1.73
2022-08-20T08:57:37.062Z,1.78
2022-08-20T08:58:37.049Z,1.83
2022-08-20T08:59:52.040Z,1.83
2022-08-20T09:00:52.731Z,1.87
2022-08-20T09:01:55.464Z,1.94
2022-08-20T09:02:39.115Z,2.08
2022-08-20T09:03:36.988Z,2.25
2022-08-20T09:04:36.975Z,3.08
2022-08-20T09:05:36.962Z,7.21
2022-08-20T09:06:36.952Z,5.53
2022-08-20T09:07:36.938Z,7.80
2022-08-20T09:08:36.927Z,7.94
2022-08-20T09:09:36.920Z,8.60
2022-08-20T09:10:36.902Z,8.97
2022-08-20T09:11:36.889Z,7.80
2022-08-20T09:12:36.878Z,8.89
2022-08-20T09:13:36.865Z,9.83
2022-08-20T09:14:36.853Z,3.53
2022-08-20T09:15:36.841Z,4.17
2022-08-20T09:16:52.232Z,2.69
2022-08-20T09:17:36.817Z,2.48
2022-08-20T09:18:36.805Z,8.80
2022-08-20T09:19:36.791Z,9.44
2022-08-20T09:20:36.781Z,9.50
2022-08-20T09:21:36.769Z,9.08
2022-08-20T09:22:36.758Z,7.88
2022-08-20T09:23:36.743Z,2.61
2022-08-20T09:24:36.733Z,8.99
2022-08-20T09:25:36.720Z,8.58
2022-08-20T09:26:39.172Z,3.97
2022-08-20T09:27:36.697Z,2.98
2022-08-20T09:28:37.257Z,7.74
2022-08-20T09:29:36.673Z,8.59
2022-08-20T09:30:36.663Z,8.64
2022-08-20T09:31:37.349Z,8.49
2022-08-20T09:32:36.641Z,8.30
2022-08-20T09:33:36.631Z,9.02
2022-08-20T09:34:36.619Z,8.99
2022-08-20T09:35:36.606Z,9.32
2022-08-20T09:36:36.596Z,9.56
2022-08-20T09:37:37.741Z,9.59
2022-08-20T09:38:36.570Z,4.27
2022-08-20T09:39:36.624Z,9.94
2022-08-20T09:40:36.546Z,9.82
2022-08-20T09:41:36.535Z,9.87
2022-08-20T09:42:41.046Z,9.87
2022-08-20T09:43:36.511Z,9.79
2022-08-20T09:44:36.501Z,8.51
2022-08-20T09:45:36.488Z,9.47
2022-08-20T09:46:36.488Z,4.88
2022-08-20T09:47:36.465Z,3.36
2022-08-20T09:48:36.455Z,2.45
2022-08-20T09:49:36.443Z,2.34
2022-08-20T09:50:36.432Z,2.35
2022-08-20T09:51:36.421Z,2.55
2022-08-20T09:52:40.561Z,3.45
2022-08-20T09:53:36.397Z,10.09
2022-08-20T09:54:36.388Z,2.24
2022-08-20T09:55:36.372Z,2.16
2022-08-20T09:56:36.362Z,2.05
2022-08-20T09:57:36.365Z,2.01
2022-08-20T09:58:36.340Z,2.02
2022-08-20T09:59:36.327Z,2.02
2022-08-20T10:00:36.338Z,2.02
2022-08-20T10:01:36.364Z,2.36
2022-08-20T10:02:36.294Z,2.15
2022-08-20T10:03:36.278Z,2.15
2022-08-20T10:04:36.266Z,1.80
2022-08-20T10:05:36.254Z,1.84
2022-08-20T10:06:37.888Z,1.96
2022-08-20T10:07:36.230Z,1.98
2022-08-20T10:08:36.221Z,1.97
2022-08-20T10:09:36.205Z,1.86
2022-08-20T10:10:36.193Z,1.92
2022-08-20T10:11:36.181Z,1.99
2022-08-20T10:12:36.169Z,2.12
2022-08-20T10:13:36.156Z,2.45
2022-08-20T10:14:36.145Z,9.89
2022-08-20T10:15:36.132Z,9.32
2022-08-20T10:16:36.123Z,9.22
2022-08-20T10:17:36.108Z,9.23
2022-08-20T10:18:36.097Z,9.25
2022-08-20T10:19:36.083Z,9.60
2022-08-20T10:20:36.071Z,9.83
2022-08-20T10:21:38.887Z,10.21
2022-08-20T10:22:36.049Z,4.58
2022-08-20T10:23:36.036Z,10.07
2022-08-20T10:24:36.028Z,10.08
2022-08-20T10:25:36.012Z,10.06
2022-08-20T10:26:36.002Z,9.90
2022-08-20T10:27:36.007Z,9.78
2022-08-20T10:28:35.978Z,9.66
2022-08-20T10:29:35.964Z,9.63
2022-08-20T10:30:35.954Z,9.39
2022-08-20T10:31:35.942Z,9.21
2022-08-20T10:32:35.932Z,9.36
2022-08-20T10:33:35.918Z,9.51
2022-08-20T10:34:35.908Z,3.68
2022-08-20T10:35:35.894Z,2.84
2022-08-20T10:36:35.885Z,2.74
2022-08-20T10:37:35.872Z,3.05
2022-08-20T10:38:35.863Z,8.59
2022-08-20T10:39:35.896Z,8.30
2022-08-20T10:40:35.840Z,8.31
2022-08-20T10:41:38.853Z,9.66
2022-08-20T10:42:39.209Z,9.94
2022-08-20T10:43:37.811Z,10.08
2022-08-20T10:44:35.794Z,2.67
2022-08-20T10:45:35.781Z,2.51
2022-08-20T10:46:35.771Z,2.31
2022-08-20T10:47:35.758Z,2.16
2022-08-20T10:48:35.752Z,2.11
2022-08-20T10:49:35.735Z,2.11
2022-08-20T10:50:35.724Z,2.25
2022-08-20T10:51:35.711Z,2.34
2022-08-20T10:52:35.700Z,7.42
2022-08-20T10:53:35.691Z,7.82
2022-08-20T10:54:35.678Z,6.93
2022-08-20T10:55:35.667Z,6.89
2022-08-20T10:56:35.656Z,7.98
2022-08-20T10:57:35.644Z,8.55
2022-08-20T10:58:39.505Z,8.98
2022-08-20T10:59:35.621Z,9.23
2022-08-20T11:00:35.610Z,9.32
2022-08-20T11:01:36.919Z,9.31
2022-08-20T11:02:35.585Z,9.32
2022-08-20T11:03:35.572Z,9.32
2022-08-20T11:04:35.563Z,9.16
2022-08-20T11:05:35.554Z,9.36
2022-08-20T11:06:35.540Z,9.44
2022-08-20T11:07:54.987Z,9.47
2022-08-20T11:08:36.230Z,9.68
2022-08-20T11:09:35.506Z,9.93
2022-08-20T11:10:35.494Z,10.02
2022-08-20T11:11:35.481Z,7.56
2022-08-20T11:12:35.472Z,10.06
2022-08-20T11:13:35.460Z,10.21
2022-08-20T11:14:35.448Z,2.83
2022-08-20T11:15:35.436Z,2.73
2022-08-20T11:16:35.426Z,2.86
2022-08-20T11:17:37.213Z,4.07
2022-08-20T11:18:35.403Z,6.23
2022-08-20T11:19:35.391Z,8.63
2022-08-20T11:20:35.379Z,9.60
2022-08-20T11:21:35.369Z,9.59
2022-08-20T11:22:35.357Z,9.50
2022-08-20T11:23:35.345Z,9.49
2022-08-20T11:24:35.334Z,9.54
2022-08-20T11:25:35.322Z,9.61
2022-08-20T11:26:35.316Z,9.66
2022-08-20T11:27:35.299Z,9.63
2022-08-20T11:28:35.293Z,9.72
2022-08-20T11:30:35.268Z,9.83
2022-08-20T11:31:35.287Z,9.69
2022-08-20T11:32:35.243Z,9.06
2022-08-20T11:33:35.231Z,9.90
2022-08-20T11:34:35.221Z,5.46
2022-08-20T11:35:48.996Z,9.85
2022-08-20T11:36:37.199Z,10.11
2022-08-20T11:37:35.186Z,2.49
2022-08-20T11:38:35.175Z,8.84
2022-08-20T11:39:37.501Z,9.51
2022-08-20T11:40:35.157Z,9.70
2022-08-20T11:41:35.140Z,9.74
2022-08-20T11:42:35.133Z,9.68
2022-08-20T11:43:35.121Z,9.50
2022-08-20T11:44:35.109Z,9.28
2022-08-20T11:45:37.591Z,9.06
2022-08-20T11:46:35.087Z,8.88
2022-08-20T11:47:35.074Z,8.88
2022-08-20T11:48:35.064Z,8.85
2022-08-20T11:49:35.052Z,8.56
2022-08-20T11:50:35.040Z,8.59
2022-08-20T11:51:49.338Z,8.54
2022-08-20T11:52:35.018Z,8.49
2022-08-20T11:53:35.006Z,8.49
2022-08-20T11:54:34.995Z,8.55
2022-08-20T11:55:34.985Z,5.84
2022-08-20T11:56:34.973Z,7.56
2022-08-20T11:57:34.962Z,8.73
2022-08-20T11:58:34.951Z,8.65
2022-08-20T11:59:34.939Z,8.51
2022-08-20T12:00:34.940Z,6.96
2022-08-20T12:01:34.916Z,5.07
2022-08-20T12:02:34.985Z,8.36
2022-08-20T12:03:34.894Z,3.08
2022-08-20T12:04:35.115Z,8.37
2022-08-20T12:05:34.871Z,8.36
2022-08-20T12:06:34.860Z,8.25
2022-08-20T12:07:34.848Z,8.17
2022-08-20T12:08:34.839Z,8.18
2022-08-20T12:09:34.826Z,8.28
2022-08-20T12:10:34.819Z,8.32
2022-08-20T12:11:34.809Z,8.20
2022-08-20T12:12:34.797Z,8.16
2022-08-20T12:13:48.146Z,3.63
2022-08-20T12:14:34.771Z,6.63
2022-08-20T12:15:34.758Z,2.27
2022-08-20T12:16:34.747Z,2.22
2022-08-20T12:17:34.734Z,2.15
2022-08-20T12:18:34.723Z,5.34
2022-08-20T12:19:34.714Z,4.93
2022-08-20T12:20:34.702Z,5.36
2022-08-20T12:21:34.755Z,8.07
2022-08-20T12:22:34.678Z,7.77
2022-08-20T12:23:34.666Z,4.92
2022-08-20T12:24:34.658Z,7.91
2022-08-20T12:25:34.647Z,7.89
2022-08-20T12:26:34.633Z,7.80
2022-08-20T12:27:34.633Z,7.68
2022-08-20T12:28:34.614Z,7.55
2022-08-20T12:29:34.598Z,7.51
2022-08-20T12:30:34.588Z,7.59
2022-08-20T12:31:34.572Z,7.59
2022-08-20T12:32:34.560Z,7.41
2022-08-20T12:33:34.547Z,7.31
2022-08-20T12:34:34.535Z,7.32
2022-08-20T12:35:34.524Z,7.44
2022-08-20T12:36:34.515Z,6.97
2022-08-20T12:37:34.499Z,7.39
2022-08-20T12:38:34.489Z,1.88
2022-08-20T12:39:34.543Z,2.70
2022-08-20T12:40:34.545Z,5.35
2022-08-20T12:41:34.451Z,3.84
2022-08-20T12:42:34.447Z,7.15
2022-08-20T12:43:34.427Z,7.49
2022-08-20T12:44:34.414Z,7.27
2022-08-20T12:45:34.405Z,7.25
2022-08-20T12:46:34.393Z,7.26
2022-08-20T12:47:34.378Z,7.21
2022-08-20T12:48:34.365Z,5.34
2022-08-20T12:49:34.353Z,7.13
2022-08-20T12:50:34.340Z,7.17
2022-08-20T12:51:34.330Z,7.47
2022-08-20T12:52:34.316Z,7.32
2022-08-20T12:53:34.483Z,7.31
2022-08-20T12:54:34.292Z,7.18
2022-08-20T12:55:34.279Z,7.08
2022-08-20T12:56:34.267Z,7.03
2022-08-20T12:57:34.255Z,6.94
2022-08-20T12:58:34.242Z,6.85
2022-08-20T12:59:34.231Z,6.78
2022-08-20T13:00:34.219Z,6.54
2022-08-20T13:01:34.278Z,6.58
2022-08-20T13:02:34.194Z,6.58
2022-08-20T13:03:34.181Z,6.55
2022-08-20T13:04:34.168Z,6.35
2022-08-20T13:05:34.158Z,6.18
2022-08-20T13:06:34.143Z,6.08
2022-08-20T13:07:34.132Z,6.08
2022-08-20T13:08:34.120Z,6.16
2022-08-20T13:09:34.107Z,6.23
2022-08-20T13:10:34.093Z,6.21
2022-08-20T13:11:34.083Z,6.27
2022-08-20T13:12:34.070Z,6.25
2022-08-20T13:13:34.059Z,6.26
2022-08-20T13:14:34.047Z,6.20
2022-08-20T13:15:34.034Z,5.01
2022-08-20T13:16:34.022Z,5.92
2022-08-20T13:17:38.664Z,5.88
2022-08-20T13:18:34.000Z,1.69
2022-08-20T13:19:33.991Z,6.11
2022-08-20T13:20:34.787Z,5.91
2022-08-20T13:21:33.971Z,4.77